sensor_id;sensor_type;location;lat;lon;timestamp;P1;durP1;ratioP1;P2;durP2;ratioP2
66342;SDS011;53144;51.524;5.080;2023-07-13T00:01:26;7.85;;;2.10;;
66342;SDS011;53144;51.524;5.080;2023-07-13T00:03:52;9.80;;;2.67;;
66342;SDS011;53144;51.524;5.080;2023-07-13T00:06:18;5.75;;;2.50;;
66342;SDS011;53144;51.524;5.080;2023-07-13T00:08:45;8.07;;;1.98;;
66342;SDS011;53144;51.524;5.080;2023-07-13T00:11:10;6.93;;;2.20;;
66342;SDS011;53144;51.524;5.080;2023-07-13T00:13:36;10.25;;;2.55;;
66342;SDS011;53144;51.524;5.080;2023-07-13T00:16:04;7.70;;;2.00;;
66342;SDS011;53144;51.524;5.080;2023-07-13T00:18:30;7.53;;;2.00;;
66342;SDS011;53144;51.524;5.080;2023-07-13T00:20:56;7.03;;;2.60;;
66342;SDS011;53144;51.524;5.080;2023-07-13T00:23:29;10.82;;;2.55;;
66342;SDS011;53144;51.524;5.080;2023-07-13T00:25:56;8.48;;;2.53;;
66342;SDS011;53144;51.524;5.080;2023-07-13T00:28:22;8.20;;;2.58;;
66342;SDS011;53144;51.524;5.080;2023-07-13T00:30:48;10.45;;;2.38;;
66342;SDS011;53144;51.524;5.080;2023-07-13T00:33:13;7.13;;;2.20;;
66342;SDS011;53144;51.524;5.080;2023-07-13T00:35:38;8.25;;;2.80;;
66342;SDS011;53144;51.524;5.080;2023-07-13T00:38:04;10.65;;;2.53;;
66342;SDS011;53144;51.524;5.080;2023-07-13T00:40:30;9.30;;;2.47;;
66342;SDS011;53144;51.524;5.080;2023-07-13T00:42:57;7.80;;;2.38;;
66342;SDS011;53144;51.524;5.080;2023-07-13T00:47:49;6.68;;;2.45;;
66342;SDS011;53144;51.524;5.080;2023-07-13T00:50:15;9.93;;;2.40;;
66342;SDS011;53144;51.524;5.080;2023-07-13T00:52:43;9.02;;;2.78;;
66342;SDS011;53144;51.524;5.080;2023-07-13T00:55:11;5.35;;;2.55;;
66342;SDS011;53144;51.524;5.080;2023-07-13T00:57:37;14.25;;;2.95;;
66342;SDS011;53144;51.524;5.080;2023-07-13T01:00:05;13.57;;;3.00;;
66342;SDS011;53144;51.524;5.080;2023-07-13T01:02:34;11.63;;;3.47;;
66342;SDS011;53144;51.524;5.080;2023-07-13T01:05:01;13.38;;;2.88;;
66342;SDS011;53144;51.524;5.080;2023-07-13T01:07:27;11.07;;;3.03;;
66342;SDS011;53144;51.524;5.080;2023-07-13T01:09:52;6.70;;;2.70;;
66342;SDS011;53144;51.524;5.080;2023-07-13T01:12:18;9.70;;;2.50;;
66342;SDS011;53144;51.524;5.080;2023-07-13T01:14:43;11.20;;;2.80;;
66342;SDS011;53144;51.524;5.080;2023-07-13T01:17:09;11.45;;;2.80;;
66342;SDS011;53144;51.524;5.080;2023-07-13T01:19:36;7.28;;;2.28;;
66342;SDS011;53144;51.524;5.080;2023-07-13T01:24:57;9.90;;;2.80;;
66342;SDS011;53144;51.524;5.080;2023-07-13T01:29:50;9.77;;;2.90;;
66342;SDS011;53144;51.524;5.080;2023-07-13T01:32:18;10.27;;;3.00;;
66342;SDS011;53144;51.524;5.080;2023-07-13T01:34:48;7.65;;;2.90;;
66342;SDS011;53144;51.524;5.080;2023-07-13T01:37:13;7.60;;;2.60;;
66342;SDS011;53144;51.524;5.080;2023-07-13T01:42:04;6.95;;;2.70;;
66342;SDS011;53144;51.524;5.080;2023-07-13T01:44:30;7.25;;;2.90;;
66342;SDS011;53144;51.524;5.080;2023-07-13T01:46:55;9.35;;;3.00;;
66342;SDS011;53144;51.524;5.080;2023-07-13T01:49:21;8.85;;;2.92;;
66342;SDS011;53144;51.524;5.080;2023-07-13T01:54:12;7.65;;;2.75;;
66342;SDS011;53144;51.524;5.080;2023-07-13T01:56:37;6.55;;;2.58;;
66342;SDS011;53144;51.524;5.080;2023-07-13T01:59:03;6.80;;;2.55;;
66342;SDS011;53144;51.524;5.080;2023-07-13T02:03:54;5.90;;;2.50;;
66342;SDS011;53144;51.524;5.080;2023-07-13T02:06:19;9.75;;;3.05;;
66342;SDS011;53144;51.524;5.080;2023-07-13T02:08:45;10.73;;;3.22;;
66342;SDS011;53144;51.524;5.080;2023-07-13T02:11:11;5.85;;;2.88;;
66342;SDS011;53144;51.524;5.080;2023-07-13T02:16:02;17.48;;;3.30;;
66342;SDS011;53144;51.524;5.080;2023-07-13T02:18:27;10.55;;;3.42;;
66342;SDS011;53144;51.524;5.080;2023-07-13T02:23:18;9.00;;;2.90;;
66342;SDS011;53144;51.524;5.080;2023-07-13T02:25:44;8.52;;;3.30;;
66342;SDS011;53144;51.524;5.080;2023-07-13T02:28:10;6.95;;;2.83;;
66342;SDS011;53144;51.524;5.080;2023-07-13T02:33:00;9.25;;;3.35;;
66342;SDS011;53144;51.524;5.080;2023-07-13T02:37:51;10.13;;;3.45;;
66342;SDS011;53144;51.524;5.080;2023-07-13T02:40:16;12.05;;;3.17;;
66342;SDS011;53144;51.524;5.080;2023-07-13T02:42:42;8.50;;;2.60;;
66342;SDS011;53144;51.524;5.080;2023-07-13T02:45:07;7.47;;;3.15;;
66342;SDS011;53144;51.524;5.080;2023-07-13T02:47:34;11.98;;;3.35;;
66342;SDS011;53144;51.524;5.080;2023-07-13T02:52:27;10.55;;;3.45;;
66342;SDS011;53144;51.524;5.080;2023-07-13T02:54:52;12.32;;;3.20;;
66342;SDS011;53144;51.524;5.080;2023-07-13T02:59:43;7.03;;;2.95;;
66342;SDS011;53144;51.524;5.080;2023-07-13T03:02:08;10.18;;;3.60;;
66342;SDS011;53144;51.524;5.080;2023-07-13T03:04:35;10.25;;;3.78;;
66342;SDS011;53144;51.524;5.080;2023-07-13T03:07:01;12.00;;;3.85;;
66342;SDS011;53144;51.524;5.080;2023-07-13T03:11:55;11.82;;;4.88;;
66342;SDS011;53144;51.524;5.080;2023-07-13T03:14:22;15.95;;;3.92;;
66342;SDS011;53144;51.524;5.080;2023-07-13T03:16:48;12.35;;;3.88;;
66342;SDS011;53144;51.524;5.080;2023-07-13T03:21:39;10.27;;;3.45;;
66342;SDS011;53144;51.524;5.080;2023-07-13T03:26:29;12.65;;;3.67;;
66342;SDS011;53144;51.524;5.080;2023-07-13T03:31:21;12.50;;;3.65;;
66342;SDS011;53144;51.524;5.080;2023-07-13T03:33:48;12.45;;;4.03;;
66342;SDS011;53144;51.524;5.080;2023-07-13T03:38:41;16.13;;;4.13;;
66342;SDS011;53144;51.524;5.080;2023-07-13T03:43:32;8.02;;;3.83;;
66342;SDS011;53144;51.524;5.080;2023-07-13T03:45:57;12.27;;;3.83;;
66342;SDS011;53144;51.524;5.080;2023-07-13T03:50:48;10.60;;;3.70;;
66342;SDS011;53144;51.524;5.080;2023-07-13T03:53:14;13.52;;;4.22;;
66342;SDS011;53144;51.524;5.080;2023-07-13T04:00:53;17.70;;;4.07;;
66342;SDS011;53144;51.524;5.080;2023-07-13T04:03:19;11.77;;;4.47;;
66342;SDS011;53144;51.524;5.080;2023-07-13T04:08:10;11.40;;;4.03;;
66342;SDS011;53144;51.524;5.080;2023-07-13T04:13:00;13.85;;;4.40;;
66342;SDS011;53144;51.524;5.080;2023-07-13T04:15:27;15.32;;;3.95;;
66342;SDS011;53144;51.524;5.080;2023-07-13T04:17:55;12.60;;;4.18;;
66342;SDS011;53144;51.524;5.080;2023-07-13T04:22:46;16.98;;;4.00;;
66342;SDS011;53144;51.524;5.080;2023-07-13T04:27:37;12.90;;;3.83;;
66342;SDS011;53144;51.524;5.080;2023-07-13T04:30:04;13.45;;;3.63;;
66342;SDS011;53144;51.524;5.080;2023-07-13T04:32:31;12.32;;;4.30;;
66342;SDS011;53144;51.524;5.080;2023-07-13T04:37:24;14.52;;;3.78;;
66342;SDS011;53144;51.524;5.080;2023-07-13T04:39:52;20.00;;;4.88;;
66342;SDS011;53144;51.524;5.080;2023-07-13T04:44:49;11.90;;;4.75;;
66342;SDS011;53144;51.524;5.080;2023-07-13T04:47:15;21.83;;;4.50;;
66342;SDS011;53144;51.524;5.080;2023-07-13T04:52:07;9.02;;;4.35;;
66342;SDS011;53144;51.524;5.080;2023-07-13T04:54:32;28.88;;;6.22;;
66342;SDS011;53144;51.524;5.080;2023-07-13T04:56:58;11.38;;;4.60;;
66342;SDS011;53144;51.524;5.080;2023-07-13T04:59:24;13.48;;;4.70;;
66342;SDS011;53144;51.524;5.080;2023-07-13T05:01:49;13.43;;;5.05;;
66342;SDS011;53144;51.524;5.080;2023-07-13T05:04:15;11.45;;;5.28;;
66342;SDS011;53144;51.524;5.080;2023-07-13T05:06:40;15.52;;;5.22;;
66342;SDS011;53144;51.524;5.080;2023-07-13T05:09:05;14.70;;;5.57;;
66342;SDS011;53144;51.524;5.080;2023-07-13T05:11:32;14.27;;;5.70;;
66342;SDS011;53144;51.524;5.080;2023-07-13T05:13:57;14.18;;;5.35;;
66342;SDS011;53144;51.524;5.080;2023-07-13T05:16:23;17.50;;;6.50;;
66342;SDS011;53144;51.524;5.080;2023-07-13T05:18:48;23.70;;;7.80;;
66342;SDS011;53144;51.524;5.080;2023-07-13T05:21:14;18.33;;;7.43;;
66342;SDS011;53144;51.524;5.080;2023-07-13T05:23:39;21.45;;;8.38;;
66342;SDS011;53144;51.524;5.080;2023-07-13T05:26:06;22.15;;;7.93;;
66342;SDS011;53144;51.524;5.080;2023-07-13T05:28:32;19.02;;;7.28;;
66342;SDS011;53144;51.524;5.080;2023-07-13T05:30:57;19.92;;;8.02;;
66342;SDS011;53144;51.524;5.080;2023-07-13T05:33:23;22.85;;;7.85;;
66342;SDS011;53144;51.524;5.080;2023-07-13T05:35:49;21.23;;;8.57;;
66342;SDS011;53144;51.524;5.080;2023-07-13T05:38:15;20.23;;;8.30;;
66342;SDS011;53144;51.524;5.080;2023-07-13T05:40:42;27.05;;;8.48;;
66342;SDS011;53144;51.524;5.080;2023-07-13T05:43:08;22.33;;;9.13;;
66342;SDS011;53144;51.524;5.080;2023-07-13T05:45:34;21.70;;;8.48;;
66342;SDS011;53144;51.524;5.080;2023-07-13T05:47:59;23.27;;;8.95;;
66342;SDS011;53144;51.524;5.080;2023-07-13T05:50:25;23.92;;;9.02;;
66342;SDS011;53144;51.524;5.080;2023-07-13T05:52:51;30.05;;;9.60;;
66342;SDS011;53144;51.524;5.080;2023-07-13T05:55:17;23.83;;;9.25;;
66342;SDS011;53144;51.524;5.080;2023-07-13T05:57:43;30.67;;;10.32;;
66342;SDS011;53144;51.524;5.080;2023-07-13T06:00:11;22.20;;;8.90;;
66342;SDS011;53144;51.524;5.080;2023-07-13T06:02:40;27.70;;;9.52;;
66342;SDS011;53144;51.524;5.080;2023-07-13T06:05:05;26.23;;;10.10;;
66342;SDS011;53144;51.524;5.080;2023-07-13T06:07:31;23.50;;;9.82;;
66342;SDS011;53144;51.524;5.080;2023-07-13T06:09:56;29.50;;;10.18;;
66342;SDS011;53144;51.524;5.080;2023-07-13T06:12:24;26.17;;;10.05;;
66342;SDS011;53144;51.524;5.080;2023-07-13T06:14:49;25.02;;;9.63;;
66342;SDS011;53144;51.524;5.080;2023-07-13T06:17:15;24.27;;;8.95;;
66342;SDS011;53144;51.524;5.080;2023-07-13T06:19:40;22.13;;;9.45;;
66342;SDS011;53144;51.524;5.080;2023-07-13T06:22:05;27.27;;;9.75;;
66342;SDS011;53144;51.524;5.080;2023-07-13T06:24:31;18.85;;;8.27;;
66342;SDS011;53144;51.524;5.080;2023-07-13T06:26:56;20.80;;;9.60;;
66342;SDS011;53144;51.524;5.080;2023-07-13T06:29:22;26.02;;;9.57;;
66342;SDS011;53144;51.524;5.080;2023-07-13T06:31:47;21.02;;;9.18;;
66342;SDS011;53144;51.524;5.080;2023-07-13T06:34:12;22.48;;;9.00;;
66342;SDS011;53144;51.524;5.080;2023-07-13T06:36:38;22.23;;;9.55;;
66342;SDS011;53144;51.524;5.080;2023-07-13T06:39:03;19.67;;;9.30;;
66342;SDS011;53144;51.524;5.080;2023-07-13T06:41:29;27.98;;;9.55;;
66342;SDS011;53144;51.524;5.080;2023-07-13T06:43:55;18.75;;;8.82;;
66342;SDS011;53144;51.524;5.080;2023-07-13T06:46:21;22.58;;;9.63;;
66342;SDS011;53144;51.524;5.080;2023-07-13T06:48:47;22.27;;;9.68;;
66342;SDS011;53144;51.524;5.080;2023-07-13T06:51:13;26.20;;;10.18;;
66342;SDS011;53144;51.524;5.080;2023-07-13T06:53:39;20.83;;;8.80;;
66342;SDS011;53144;51.524;5.080;2023-07-13T06:56:04;19.90;;;9.00;;
66342;SDS011;53144;51.524;5.080;2023-07-13T06:58:30;21.00;;;9.00;;
66342;SDS011;53144;51.524;5.080;2023-07-13T07:00:55;25.60;;;9.35;;
66342;SDS011;53144;51.524;5.080;2023-07-13T07:03:21;24.08;;;8.90;;
66342;SDS011;53144;51.524;5.080;2023-07-13T07:05:46;18.13;;;8.57;;
66342;SDS011;53144;51.524;5.080;2023-07-13T07:08:12;24.55;;;9.43;;
66342;SDS011;53144;51.524;5.080;2023-07-13T07:10:37;18.58;;;8.07;;
66342;SDS011;53144;51.524;5.080;2023-07-13T07:13:03;19.30;;;8.10;;
66342;SDS011;53144;51.524;5.080;2023-07-13T07:15:29;22.02;;;8.70;;
66342;SDS011;53144;51.524;5.080;2023-07-13T07:17:54;18.27;;;8.63;;
66342;SDS011;53144;51.524;5.080;2023-07-13T07:20:20;18.85;;;8.80;;
66342;SDS011;53144;51.524;5.080;2023-07-13T07:22:46;19.13;;;7.20;;
66342;SDS011;53144;51.524;5.080;2023-07-13T07:25:12;18.33;;;8.23;;
66342;SDS011;53144;51.524;5.080;2023-07-13T07:27:37;22.30;;;7.97;;
66342;SDS011;53144;51.524;5.080;2023-07-13T07:30:03;20.45;;;8.38;;
66342;SDS011;53144;51.524;5.080;2023-07-13T07:32:30;19.92;;;7.70;;
66342;SDS011;53144;51.524;5.080;2023-07-13T07:34:56;23.38;;;8.15;;
66342;SDS011;53144;51.524;5.080;2023-07-13T07:37:22;21.38;;;8.43;;
66342;SDS011;53144;51.524;5.080;2023-07-13T07:39:48;19.83;;;7.78;;
66342;SDS011;53144;51.524;5.080;2023-07-13T07:42:13;18.83;;;7.50;;
66342;SDS011;53144;51.524;5.080;2023-07-13T07:44:39;18.38;;;7.10;;
66342;SDS011;53144;51.524;5.080;2023-07-13T07:47:06;17.45;;;7.60;;
66342;SDS011;53144;51.524;5.080;2023-07-13T07:49:31;17.35;;;7.78;;
66342;SDS011;53144;51.524;5.080;2023-07-13T07:51:57;16.27;;;8.25;;
66342;SDS011;53144;51.524;5.080;2023-07-13T07:54:22;23.38;;;8.00;;
66342;SDS011;53144;51.524;5.080;2023-07-13T07:56:48;15.95;;;7.00;;
66342;SDS011;53144;51.524;5.080;2023-07-13T07:59:13;16.63;;;6.97;;
66342;SDS011;53144;51.524;5.080;2023-07-13T08:01:39;16.15;;;7.25;;
66342;SDS011;53144;51.524;5.080;2023-07-13T08:04:04;14.73;;;7.85;;
66342;SDS011;53144;51.524;5.080;2023-07-13T08:06:31;17.38;;;7.63;;
66342;SDS011;53144;51.524;5.080;2023-07-13T08:08:58;15.30;;;7.53;;
66342;SDS011;53144;51.524;5.080;2023-07-13T08:11:24;13.80;;;6.85;;
66342;SDS011;53144;51.524;5.080;2023-07-13T08:13:49;15.35;;;7.10;;
66342;SDS011;53144;51.524;5.080;2023-07-13T08:16:15;15.50;;;7.60;;
66342;SDS011;53144;51.524;5.080;2023-07-13T08:18:41;17.05;;;7.60;;
66342;SDS011;53144;51.524;5.080;2023-07-13T08:21:07;18.08;;;6.95;;
66342;SDS011;53144;51.524;5.080;2023-07-13T08:23:33;14.52;;;6.70;;
66342;SDS011;53144;51.524;5.080;2023-07-13T08:25:59;13.07;;;5.80;;
66342;SDS011;53144;51.524;5.080;2023-07-13T08:28:26;12.88;;;6.85;;
66342;SDS011;53144;51.524;5.080;2023-07-13T08:30:53;13.98;;;7.15;;
66342;SDS011;53144;51.524;5.080;2023-07-13T08:33:19;17.67;;;7.53;;
66342;SDS011;53144;51.524;5.080;2023-07-13T08:35:49;11.60;;;7.55;;
66342;SDS011;53144;51.524;5.080;2023-07-13T08:38:15;11.50;;;6.82;;
66342;SDS011;53144;51.524;5.080;2023-07-13T08:40:48;14.65;;;7.20;;
66342;SDS011;53144;51.524;5.080;2023-07-13T08:43:17;10.75;;;6.63;;
66342;SDS011;53144;51.524;5.080;2023-07-13T08:45:58;13.35;;;7.40;;
66342;SDS011;53144;51.524;5.080;2023-07-13T08:48:42;13.95;;;7.22;;
66342;SDS011;53144;51.524;5.080;2023-07-13T08:51:34;12.25;;;7.20;;
66342;SDS011;53144;51.524;5.080;2023-07-13T08:56:56;11.95;;;6.88;;
66342;SDS011;53144;51.524;5.080;2023-07-13T08:59:26;17.67;;;7.22;;
66342;SDS011;53144;51.524;5.080;2023-07-13T09:04:36;15.88;;;7.03;;
66342;SDS011;53144;51.524;5.080;2023-07-13T09:15:39;13.30;;;6.63;;
66342;SDS011;53144;51.524;5.080;2023-07-13T09:18:10;23.95;;;6.47;;
66342;SDS011;53144;51.524;5.080;2023-07-13T09:20:50;10.43;;;5.40;;
66342;SDS011;53144;51.524;5.080;2023-07-13T09:23:23;16.17;;;5.82;;
66342;SDS011;53144;51.524;5.080;2023-07-13T09:25:53;10.60;;;5.70;;
66342;SDS011;53144;51.524;5.080;2023-07-13T09:28:29;12.65;;;5.82;;
66342;SDS011;53144;51.524;5.080;2023-07-13T09:31:20;10.63;;;5.80;;
66342;SDS011;53144;51.524;5.080;2023-07-13T09:33:51;12.90;;;6.00;;
66342;SDS011;53144;51.524;5.080;2023-07-13T09:38:44;11.40;;;5.20;;
66342;SDS011;53144;51.524;5.080;2023-07-13T09:41:28;10.00;;;4.75;;
66342;SDS011;53144;51.524;5.080;2023-07-13T09:44:14;13.45;;;4.97;;
66342;SDS011;53144;51.524;5.080;2023-07-13T09:46:46;10.13;;;5.45;;
66342;SDS011;53144;51.524;5.080;2023-07-13T09:49:17;11.40;;;5.50;;
66342;SDS011;53144;51.524;5.080;2023-07-13T09:51:42;11.70;;;5.30;;
66342;SDS011;53144;51.524;5.080;2023-07-13T09:54:23;10.68;;;5.70;;
66342;SDS011;53144;51.524;5.080;2023-07-13T09:56:56;9.00;;;4.90;;
66342;SDS011;53144;51.524;5.080;2023-07-13T09:59:29;15.05;;;6.20;;
66342;SDS011;53144;51.524;5.080;2023-07-13T10:01:56;14.10;;;5.35;;
66342;SDS011;53144;51.524;5.080;2023-07-13T10:04:26;11.57;;;5.05;;
66342;SDS011;53144;51.524;5.080;2023-07-13T10:07:07;14.73;;;7.00;;
66342;SDS011;53144;51.524;5.080;2023-07-13T10:09:34;16.00;;;7.75;;
66342;SDS011;53144;51.524;5.080;2023-07-13T10:12:00;11.40;;;7.47;;
66342;SDS011;53144;51.524;5.080;2023-07-13T10:14:26;13.80;;;6.57;;
66342;SDS011;53144;51.524;5.080;2023-07-13T10:16:58;9.68;;;6.22;;
66342;SDS011;53144;51.524;5.080;2023-07-13T10:19:29;10.75;;;5.85;;
66342;SDS011;53144;51.524;5.080;2023-07-13T10:22:00;10.80;;;5.13;;
66342;SDS011;53144;51.524;5.080;2023-07-13T10:24:38;10.88;;;5.07;;
66342;SDS011;53144;51.524;5.080;2023-07-13T10:27:20;9.40;;;4.72;;
66342;SDS011;53144;51.524;5.080;2023-07-13T10:32:50;6.80;;;4.30;;
66342;SDS011;53144;51.524;5.080;2023-07-13T10:35:17;11.43;;;4.47;;
66342;SDS011;53144;51.524;5.080;2023-07-13T10:40:22;8.13;;;4.55;;
66342;SDS011;53144;51.524;5.080;2023-07-13T10:42:54;8.48;;;5.10;;
66342;SDS011;53144;51.524;5.080;2023-07-13T10:45:23;11.77;;;5.35;;
66342;SDS011;53144;51.524;5.080;2023-07-13T10:47:50;9.25;;;4.75;;
66342;SDS011;53144;51.524;5.080;2023-07-13T10:50:25;11.52;;;4.75;;
66342;SDS011;53144;51.524;5.080;2023-07-13T10:52:54;10.40;;;4.38;;
66342;SDS011;53144;51.524;5.080;2023-07-13T10:55:54;11.93;;;4.47;;
66342;SDS011;53144;51.524;5.080;2023-07-13T11:01:09;8.30;;;3.63;;
66342;SDS011;53144;51.524;5.080;2023-07-13T11:03:47;8.18;;;3.58;;
66342;SDS011;53144;51.524;5.080;2023-07-13T11:06:17;6.53;;;2.85;;
66342;SDS011;53144;51.524;5.080;2023-07-13T11:08:59;6.38;;;2.80;;
66342;SDS011;53144;51.524;5.080;2023-07-13T11:11:43;7.43;;;2.60;;
66342;SDS011;53144;51.524;5.080;2023-07-13T11:22:46;6.95;;;2.60;;
66342;SDS011;53144;51.524;5.080;2023-07-13T11:27:45;10.70;;;2.70;;
66342;SDS011;53144;51.524;5.080;2023-07-13T11:33:07;7.78;;;2.55;;
66342;SDS011;53144;51.524;5.080;2023-07-13T11:35:45;6.78;;;2.30;;
66342;SDS011;53144;51.524;5.080;2023-07-13T11:38:28;5.63;;;2.58;;
66342;SDS011;53144;51.524;5.080;2023-07-13T11:41:02;8.40;;;2.78;;
66342;SDS011;53144;51.524;5.080;2023-07-13T11:43:29;6.32;;;2.55;;
66342;SDS011;53144;51.524;5.080;2023-07-13T11:45:55;6.32;;;2.65;;
66342;SDS011;53144;51.524;5.080;2023-07-13T11:48:21;3.80;;;2.30;;
66342;SDS011;53144;51.524;5.080;2023-07-13T11:50:54;5.10;;;2.30;;
66342;SDS011;53144;51.524;5.080;2023-07-13T11:53:22;5.20;;;2.50;;
66342;SDS011;53144;51.524;5.080;2023-07-13T11:55:51;5.13;;;2.35;;
66342;SDS011;53144;51.524;5.080;2023-07-13T11:58:17;7.68;;;2.63;;
66342;SDS011;53144;51.524;5.080;2023-07-13T12:00:48;5.60;;;2.40;;
66342;SDS011;53144;51.524;5.080;2023-07-13T12:03:15;7.35;;;2.50;;
66342;SDS011;53144;51.524;5.080;2023-07-13T12:05:55;6.60;;;2.40;;
66342;SDS011;53144;51.524;5.080;2023-07-13T12:08:39;13.45;;;2.60;;
66342;SDS011;53144;51.524;5.080;2023-07-13T12:11:06;11.77;;;2.88;;
66342;SDS011;53144;51.524;5.080;2023-07-13T12:13:40;6.97;;;2.30;;
66342;SDS011;53144;51.524;5.080;2023-07-13T12:16:11;5.15;;;2.10;;
66342;SDS011;53144;51.524;5.080;2023-07-13T12:18:40;6.03;;;2.60;;
66342;SDS011;53144;51.524;5.080;2023-07-13T12:21:12;7.43;;;2.40;;
66342;SDS011;53144;51.524;5.080;2023-07-13T12:23:39;4.82;;;2.08;;
66342;SDS011;53144;51.524;5.080;2023-07-13T12:26:05;5.32;;;2.30;;
66342;SDS011;53144;51.524;5.080;2023-07-13T12:28:36;4.82;;;2.35;;
66342;SDS011;53144;51.524;5.080;2023-07-13T12:31:08;6.40;;;2.30;;
66342;SDS011;53144;51.524;5.080;2023-07-13T12:34:02;5.35;;;2.33;;
66342;SDS011;53144;51.524;5.080;2023-07-13T12:36:37;4.80;;;2.25;;
66342;SDS011;53144;51.524;5.080;2023-07-13T12:39:49;7.13;;;2.35;;
66342;SDS011;53144;51.524;5.080;2023-07-13T12:44:48;9.20;;;2.85;;
66342;SDS011;53144;51.524;5.080;2023-07-13T12:47:15;6.63;;;2.40;;
66342;SDS011;53144;51.524;5.080;2023-07-13T12:50:03;6.50;;;2.45;;
66342;SDS011;53144;51.524;5.080;2023-07-13T12:52:32;4.18;;;2.03;;
66342;SDS011;53144;51.524;5.080;2023-07-13T12:55:02;6.55;;;2.63;;
66342;SDS011;53144;51.524;5.080;2023-07-13T12:57:49;5.38;;;3.03;;
66342;SDS011;53144;51.524;5.080;2023-07-13T13:00:36;8.10;;;3.38;;
66342;SDS011;53144;51.524;5.080;2023-07-13T13:06:18;6.00;;;2.85;;
66342;SDS011;53144;51.524;5.080;2023-07-13T13:08:48;5.05;;;2.60;;
66342;SDS011;53144;51.524;5.080;2023-07-13T13:11:15;4.35;;;2.13;;
66342;SDS011;53144;51.524;5.080;2023-07-13T13:13:41;4.50;;;2.40;;
66342;SDS011;53144;51.524;5.080;2023-07-13T13:16:33;2.97;;;2.00;;
66342;SDS011;53144;51.524;5.080;2023-07-13T13:19:16;2.88;;;2.30;;
66342;SDS011;53144;51.524;5.080;2023-07-13T13:21:43;3.80;;;2.00;;
66342;SDS011;53144;51.524;5.080;2023-07-13T13:24:14;6.47;;;2.60;;
66342;SDS011;53144;51.524;5.080;2023-07-13T13:26:41;4.43;;;2.30;;
66342;SDS011;53144;51.524;5.080;2023-07-13T13:29:13;5.40;;;2.03;;
66342;SDS011;53144;51.524;5.080;2023-07-13T13:31:41;4.80;;;2.45;;
66342;SDS011;53144;51.524;5.080;2023-07-13T13:34:10;5.53;;;2.50;;
66342;SDS011;53144;51.524;5.080;2023-07-13T13:36:39;5.45;;;2.70;;
66342;SDS011;53144;51.524;5.080;2023-07-13T13:39:24;4.50;;;2.40;;
66342;SDS011;53144;51.524;5.080;2023-07-13T13:41:50;4.10;;;2.40;;
66342;SDS011;53144;51.524;5.080;2023-07-13T13:44:17;5.53;;;2.83;;
66342;SDS011;53144;51.524;5.080;2023-07-13T13:46:44;5.50;;;2.50;;
66342;SDS011;53144;51.524;5.080;2023-07-13T13:49:15;7.45;;;2.80;;
66342;SDS011;53144;51.524;5.080;2023-07-13T13:51:42;8.32;;;2.60;;
66342;SDS011;53144;51.524;5.080;2023-07-13T13:54:14;5.47;;;2.67;;
66342;SDS011;53144;51.524;5.080;2023-07-13T13:56:44;7.07;;;2.75;;
66342;SDS011;53144;51.524;5.080;2023-07-13T13:59:11;8.43;;;2.50;;
66342;SDS011;53144;51.524;5.080;2023-07-13T14:01:37;5.32;;;2.15;;
66342;SDS011;53144;51.524;5.080;2023-07-13T14:04:03;4.88;;;2.33;;
66342;SDS011;53144;51.524;5.080;2023-07-13T14:06:30;5.25;;;2.25;;
66342;SDS011;53144;51.524;5.080;2023-07-13T14:08:56;4.97;;;2.78;;
66342;SDS011;53144;51.524;5.080;2023-07-13T14:11:21;7.75;;;2.25;;
66342;SDS011;53144;51.524;5.080;2023-07-13T14:13:53;3.78;;;2.40;;
66342;SDS011;53144;51.524;5.080;2023-07-13T14:16:21;10.50;;;2.88;;
66342;SDS011;53144;51.524;5.080;2023-07-13T14:18:48;5.55;;;2.03;;
66342;SDS011;53144;51.524;5.080;2023-07-13T14:21:15;6.22;;;2.42;;
66342;SDS011;53144;51.524;5.080;2023-07-13T14:23:44;4.05;;;2.28;;
66342;SDS011;53144;51.524;5.080;2023-07-13T14:26:12;8.45;;;2.67;;
66342;SDS011;53144;51.524;5.080;2023-07-13T14:28:41;5.40;;;2.50;;
66342;SDS011;53144;51.524;5.080;2023-07-13T14:31:08;5.68;;;2.40;;
66342;SDS011;53144;51.524;5.080;2023-07-13T14:33:34;5.07;;;2.00;;
66342;SDS011;53144;51.524;5.080;2023-07-13T14:35:59;4.78;;;2.40;;
66342;SDS011;53144;51.524;5.080;2023-07-13T14:38:25;6.50;;;2.38;;
66342;SDS011;53144;51.524;5.080;2023-07-13T14:40:50;3.95;;;2.15;;
66342;SDS011;53144;51.524;5.080;2023-07-13T14:43:16;8.13;;;2.40;;
66342;SDS011;53144;51.524;5.080;2023-07-13T14:45:44;6.40;;;2.33;;
66342;SDS011;53144;51.524;5.080;2023-07-13T14:48:15;10.50;;;2.30;;
66342;SDS011;53144;51.524;5.080;2023-07-13T14:50:43;5.45;;;2.33;;
66342;SDS011;53144;51.524;5.080;2023-07-13T14:53:10;6.90;;;2.70;;
66342;SDS011;53144;51.524;5.080;2023-07-13T14:55:36;6.03;;;2.60;;
66342;SDS011;53144;51.524;5.080;2023-07-13T14:58:02;9.13;;;2.47;;
66342;SDS011;53144;51.524;5.080;2023-07-13T15:00:27;6.00;;;2.55;;
66342;SDS011;53144;51.524;5.080;2023-07-13T15:02:54;5.43;;;3.03;;
66342;SDS011;53144;51.524;5.080;2023-07-13T15:05:22;5.10;;;3.03;;
66342;SDS011;53144;51.524;5.080;2023-07-13T15:07:50;6.03;;;2.83;;
66342;SDS011;53144;51.524;5.080;2023-07-13T15:10:34;4.93;;;3.08;;
66342;SDS011;53144;51.524;5.080;2023-07-13T15:13:12;4.78;;;3.00;;
66342;SDS011;53144;51.524;5.080;2023-07-13T15:15:43;7.65;;;2.90;;
66342;SDS011;53144;51.524;5.080;2023-07-13T15:18:12;4.68;;;2.90;;
66342;SDS011;53144;51.524;5.080;2023-07-13T15:20:38;4.43;;;2.80;;
66342;SDS011;53144;51.524;5.080;2023-07-13T15:23:04;5.72;;;2.70;;
66342;SDS011;53144;51.524;5.080;2023-07-13T15:25:31;6.65;;;2.97;;
66342;SDS011;53144;51.524;5.080;2023-07-13T15:27:58;4.93;;;2.63;;
66342;SDS011;53144;51.524;5.080;2023-07-13T15:30:27;6.85;;;2.65;;
66342;SDS011;53144;51.524;5.080;2023-07-13T15:32:55;3.10;;;2.42;;
66342;SDS011;53144;51.524;5.080;2023-07-13T15:35:27;6.15;;;2.72;;
66342;SDS011;53144;51.524;5.080;2023-07-13T15:37:53;4.65;;;2.80;;
66342;SDS011;53144;51.524;5.080;2023-07-13T15:40:19;4.78;;;2.58;;
66342;SDS011;53144;51.524;5.080;2023-07-13T15:42:46;4.70;;;2.60;;
66342;SDS011;53144;51.524;5.080;2023-07-13T15:45:20;7.68;;;2.78;;
66342;SDS011;53144;51.524;5.080;2023-07-13T15:47:47;6.00;;;2.75;;
66342;SDS011;53144;51.524;5.080;2023-07-13T15:50:15;5.50;;;2.63;;
66342;SDS011;53144;51.524;5.080;2023-07-13T15:52:43;5.88;;;3.03;;
66342;SDS011;53144;51.524;5.080;2023-07-13T15:55:11;4.38;;;2.75;;
66342;SDS011;53144;51.524;5.080;2023-07-13T15:57:38;5.47;;;2.97;;
66342;SDS011;53144;51.524;5.080;2023-07-13T16:00:12;5.97;;;2.60;;
66342;SDS011;53144;51.524;5.080;2023-07-13T16:02:49;7.35;;;3.00;;
66342;SDS011;53144;51.524;5.080;2023-07-13T16:05:16;6.72;;;2.83;;
66342;SDS011;53144;51.524;5.080;2023-07-13T16:07:45;6.85;;;3.13;;
66342;SDS011;53144;51.524;5.080;2023-07-13T16:10:31;5.57;;;3.10;;
66342;SDS011;53144;51.524;5.080;2023-07-13T16:15:25;8.02;;;3.03;;
66342;SDS011;53144;51.524;5.080;2023-07-13T16:17:51;5.65;;;2.80;;
66342;SDS011;53144;51.524;5.080;2023-07-13T16:20:16;5.50;;;2.60;;
66342;SDS011;53144;51.524;5.080;2023-07-13T16:22:46;9.80;;;2.90;;
66342;SDS011;53144;51.524;5.080;2023-07-13T16:25:14;8.75;;;3.00;;
66342;SDS011;53144;51.524;5.080;2023-07-13T16:27:43;8.15;;;2.92;;
66342;SDS011;53144;51.524;5.080;2023-07-13T16:30:16;3.75;;;2.90;;
66342;SDS011;53144;51.524;5.080;2023-07-13T16:32:46;7.20;;;3.30;;
66342;SDS011;53144;51.524;5.080;2023-07-13T16:35:13;11.30;;;3.22;;
66342;SDS011;53144;51.524;5.080;2023-07-13T16:37:39;4.97;;;2.95;;
66342;SDS011;53144;51.524;5.080;2023-07-13T16:40:12;4.15;;;2.92;;
66342;SDS011;53144;51.524;5.080;2023-07-13T16:42:50;8.60;;;3.95;;
66342;SDS011;53144;51.524;5.080;2023-07-13T16:45:20;7.85;;;4.13;;